sensor_id;sensor_type;location;lat;lon;timestamp;pressure;altitude;pressure_sealevel;temperature;humidity
38022;BME280;23832;43.216;27.946;2022-12-07T00:01:23;101063.56;;;12.53;100.00
38022;BME280;23832;43.216;27.946;2022-12-07T00:03:25;101065.38;;;12.52;100.00
38022;BME280;23832;43.216;27.946;2022-12-07T00:05:27;101065.56;;;12.50;100.00
38022;BME280;23832;43.216;27.946;2022-12-07T00:07:30;101065.72;;;12.49;100.00
38022;BME280;23832;43.216;27.946;2022-12-07T00:09:34;101059.78;;;12.47;100.00
38022;BME280;23832;43.216;27.946;2022-12-07T00:11:36;101065.25;;;12.45;100.00
38022;BME280;23832;43.216;27.946;2022-12-07T00:13:38;101061.44;;;12.48;100.00
38022;BME280;23832;43.216;27.946;2022-12-07T00:15:40;101066.91;;;12.46;100.00
38022;BME280;23832;43.216;27.946;2022-12-07T00:17:41;101070.53;;;12.45;100.00
38022;BME280;23832;43.216;27.946;2022-12-07T00:19:43;101067.91;;;12.45;100.00
38022;BME280;23832;43.216;27.946;2022-12-07T00:21:56;101068.25;;;12.42;100.00
38022;BME280;23832;43.216;27.946;2022-12-07T00:23:57;101070.91;;;12.42;100.00
38022;BME280;23832;43.216;27.946;2022-12-07T00:26:27;101071.22;;;12.39;100.00
38022;BME280;23832;43.216;27.946;2022-12-07T00:28:35;101069.59;;;12.38;100.00
38022;BME280;23832;43.216;27.946;2022-12-07T00:30:41;101070.41;;;12.39;100.00
38022;BME280;23832;43.216;27.946;2022-12-07T00:32:43;101084.81;;;12.36;100.00
38022;BME280;23832;43.216;27.946;2022-12-07T00:34:44;101077.69;;;12.37;100.00
38022;BME280;23832;43.216;27.946;2022-12-07T00:36:46;101076.06;;;12.36;100.00
38022;BME280;23832;43.216;27.946;2022-12-07T00:38:49;101084.81;;;12.36;100.00
38022;BME280;23832;43.216;27.946;2022-12-07T00:40:55;101074.88;;;12.38;100.00
38022;BME280;23832;43.216;27.946;2022-12-07T00:42:58;101063.47;;;12.38;100.00
38022;BME280;23832;43.216;27.946;2022-12-07T00:45:00;101072.22;;;12.38;100.00
38022;BME280;23832;43.216;27.946;2022-12-07T00:47:02;101065.31;;;12.37;100.00
38022;BME280;23832;43.216;27.946;2022-12-07T00:49:04;101060.00;;;12.37;100.00
38022;BME280;23832;43.216;27.946;2022-12-07T00:51:09;101059.00;;;12.38;100.00
38022;BME280;23832;43.216;27.946;2022-12-07T00:53:12;101071.22;;;12.39;100.00
38022;BME280;23832;43.216;27.946;2022-12-07T00:55:19;101070.25;;;12.40;100.00
38022;BME280;23832;43.216;27.946;2022-12-07T00:57:33;101069.41;;;12.40;100.00
38022;BME280;23832;43.216;27.946;2022-12-07T00:59:39;101057.69;;;12.42;100.00
38022;BME280;23832;43.216;27.946;2022-12-07T01:01:41;101055.03;;;12.42;100.00
38022;BME280;23832;43.216;27.946;2022-12-07T01:03:43;101060.97;;;12.44;100.00
38022;BME280;23832;43.216;27.946;2022-12-07T01:05:51;101061.78;;;12.45;100.00
38022;BME280;23832;43.216;27.946;2022-12-07T01:07:52;101053.69;;;12.46;100.00
38022;BME280;23832;43.216;27.946;2022-12-07T01:09:54;101060.59;;;12.47;100.00
38022;BME280;23832;43.216;27.946;2022-12-07T01:11:57;101055.31;;;12.47;100.00
38022;BME280;23832;43.216;27.946;2022-12-07T01:13:59;101046.38;;;12.48;100.00
38022;BME280;23832;43.216;27.946;2022-12-07T01:16:05;101047.22;;;12.49;100.00
38022;BME280;23832;43.216;27.946;2022-12-07T01:18:16;101040.13;;;12.49;100.00
38022;BME280;23832;43.216;27.946;2022-12-07T01:20:21;101039.75;;;12.53;100.00
38022;BME280;23832;43.216;27.946;2022-12-07T01:22:27;101034.47;;;12.53;100.00
38022;BME280;23832;43.216;27.946;2022-12-07T01:24:31;101024.72;;;12.53;100.00
38022;BME280;23832;43.216;27.946;2022-12-07T01:26:33;101029.81;;;12.55;100.00
38022;BME280;23832;43.216;27.946;2022-12-07T01:28:35;101036.94;;;12.54;100.00
38022;BME280;23832;43.216;27.946;2022-12-07T01:30:36;101024.53;;;12.55;100.00
38022;BME280;23832;43.216;27.946;2022-12-07T01:32:39;101022.91;;;12.54;100.00
38022;BME280;23832;43.216;27.946;2022-12-07T01:34:41;101019.25;;;12.55;100.00
38022;BME280;23832;43.216;27.946;2022-12-07T01:36:43;101011.50;;;12.53;100.00
38022;BME280;23832;43.216;27.946;2022-12-07T01:38:46;101011.50;;;12.53;100.00
38022;BME280;23832;43.216;27.946;2022-12-07T01:40:53;101004.56;;;12.52;100.00
38022;BME280;23832;43.216;27.946;2022-12-07T01:42:54;101005.56;;;12.51;100.00
38022;BME280;23832;43.216;27.946;2022-12-07T01:47:17;100996.97;;;12.49;100.00
38022;BME280;23832;43.216;27.946;2022-12-07T01:49:23;100996.13;;;12.48;100.00
38022;BME280;23832;43.216;27.946;2022-12-07T01:51:26;100987.38;;;12.48;100.00
38022;BME280;23832;43.216;27.946;2022-12-07T01:53:28;100993.69;;;12.47;100.00
38022;BME280;23832;43.216;27.946;2022-12-07T01:55:34;100995.50;;;12.46;100.00
38022;BME280;23832;43.216;27.946;2022-12-07T01:57:45;100994.69;;;12.46;100.00
38022;BME280;23832;43.216;27.946;2022-12-07T01:59:52;100988.56;;;12.45;100.00
38022;BME280;23832;43.216;27.946;2022-12-07T02:01:55;100995.50;;;12.46;100.00
38022;BME280;23832;43.216;27.946;2022-12-07T02:03:58;100991.22;;;12.45;100.00
38022;BME280;23832;43.216;27.946;2022-12-07T02:06:03;100994.69;;;12.46;100.00
38022;BME280;23832;43.216;27.946;2022-12-07T02:08:05;100993.84;;;12.45;100.00
38022;BME280;23832;43.216;27.946;2022-12-07T02:10:14;100992.03;;;12.46;100.00
38022;BME280;23832;43.216;27.946;2022-12-07T02:12:15;100999.97;;;12.46;100.00
38022;BME280;23832;43.216;27.946;2022-12-07T02:14:17;100994.69;;;12.46;100.00
38022;BME280;23832;43.216;27.946;2022-12-07T02:16:25;100994.69;;;12.46;100.00
38022;BME280;23832;43.216;27.946;2022-12-07T02:18:31;100997.13;;;12.47;100.00
38022;BME280;23832;43.216;27.946;2022-12-07T02:20:35;100993.69;;;12.47;100.00
38022;BME280;23832;43.216;27.946;2022-12-07T02:25:01;100986.56;;;12.47;100.00
38022;BME280;23832;43.216;27.946;2022-12-07T02:27:11;100994.31;;;12.49;100.00
38022;BME280;23832;43.216;27.946;2022-12-07T02:29:22;100996.13;;;12.48;100.00
38022;BME280;23832;43.216;27.946;2022-12-07T02:31:24;100992.66;;;12.48;100.00
38022;BME280;23832;43.216;27.946;2022-12-07T02:33:28;100989.22;;;12.47;100.00
38022;BME280;23832;43.216;27.946;2022-12-07T02:35:32;100991.84;;;12.47;100.00
38022;BME280;23832;43.216;27.946;2022-12-07T02:37:37;100994.50;;;12.47;100.00
38022;BME280;23832;43.216;27.946;2022-12-07T02:39:42;100990.22;;;12.46;100.00
38022;BME280;23832;43.216;27.946;2022-12-07T02:41:46;101005.25;;;12.46;100.00
38022;BME280;23832;43.216;27.946;2022-12-07T02:43:50;100989.38;;;12.46;100.00
38022;BME280;23832;43.216;27.946;2022-12-07T02:45:56;100988.56;;;12.45;100.00
38022;BME280;23832;43.216;27.946;2022-12-07T02:47:59;100990.22;;;12.46;100.00
38022;BME280;23832;43.216;27.946;2022-12-07T02:50:02;100993.03;;;12.45;100.00
38022;BME280;23832;43.216;27.946;2022-12-07T02:52:06;100990.56;;;12.43;100.00
38022;BME280;23832;43.216;27.946;2022-12-07T02:54:09;100995.88;;;12.43;100.00
38022;BME280;23832;43.216;27.946;2022-12-07T02:56:13;100991.75;;;12.41;100.00
38022;BME280;23832;43.216;27.946;2022-12-07T02:58:23;100989.13;;;12.41;100.00
38022;BME280;23832;43.216;27.946;2022-12-07T03:00:28;100994.56;;;12.39;100.00
38022;BME280;23832;43.216;27.946;2022-12-07T03:02:38;100993.91;;;12.37;100.00
38022;BME280;23832;43.216;27.946;2022-12-07T03:04:45;100994.09;;;12.36;100.00
38022;BME280;23832;43.216;27.946;2022-12-07T03:06:53;100988.97;;;12.34;100.00
38022;BME280;23832;43.216;27.946;2022-12-07T03:08:59;100984.88;;;12.32;100.00
38022;BME280;23832;43.216;27.946;2022-12-07T03:11:04;100985.84;;;12.31;100.00
38022;BME280;23832;43.216;27.946;2022-12-07T03:13:09;100981.75;;;12.28;100.00
38022;BME280;23832;43.216;27.946;2022-12-07T03:15:14;100974.81;;;12.27;100.00
38022;BME280;23832;43.216;27.946;2022-12-07T03:17:20;100976.19;;;12.23;100.00
38022;BME280;23832;43.216;27.946;2022-12-07T03:19:26;100979.78;;;12.22;100.00
38022;BME280;23832;43.216;27.946;2022-12-07T03:21:30;100979.16;;;12.20;100.00
38022;BME280;23832;43.216;27.946;2022-12-07T03:23:33;100981.16;;;12.18;100.00
38022;BME280;23832;43.216;27.946;2022-12-07T03:25:38;100977.03;;;12.15;100.00
38022;BME280;23832;43.216;27.946;2022-12-07T03:27:43;100985.97;;;12.14;100.00
38022;BME280;23832;43.216;27.946;2022-12-07T03:29:51;100980.03;;;12.12;100.00
38022;BME280;23832;43.216;27.946;2022-12-07T03:31:58;100978.38;;;12.11;100.00
38022;BME280;23832;43.216;27.946;2022-12-07T03:34:04;100980.38;;;12.09;100.00
38022;BME280;23832;43.216;27.946;2022-12-07T03:36:11;100978.56;;;12.10;100.00
38022;BME280;23832;43.216;27.946;2022-12-07T03:38:17;100975.91;;;12.10;100.00
38022;BME280;23832;43.216;27.946;2022-12-07T03:40:22;100976.72;;;12.10;100.00
38022;BME280;23832;43.216;27.946;2022-12-07T03:42:25;100970.63;;;12.10;100.00
38022;BME280;23832;43.216;27.946;2022-12-07T03:44:27;100970.81;;;12.08;100.00
38022;BME280;23832;43.216;27.946;2022-12-07T03:46:32;100971.63;;;12.09;100.00
38022;BME280;23832;43.216;27.946;2022-12-07T03:48:37;100976.28;;;12.07;100.00
38022;BME280;23832;43.216;27.946;2022-12-07T03:50:42;100974.44;;;12.07;100.00
38022;BME280;23832;43.216;27.946;2022-12-07T03:52:47;100972.00;;;12.06;100.00
38022;BME280;23832;43.216;27.946;2022-12-07T03:54:55;100970.34;;;12.05;100.00
38022;BME280;23832;43.216;27.946;2022-12-07T03:56:59;100975.63;;;12.05;100.00
38022;BME280;23832;43.216;27.946;2022-12-07T03:59:02;100975.78;;;12.03;100.00
38022;BME280;23832;43.216;27.946;2022-12-07T04:01:04;100979.25;;;12.04;100.00
38022;BME280;23832;43.216;27.946;2022-12-07T04:03:06;100974.97;;;12.03;100.00
38022;BME280;23832;43.216;27.946;2022-12-07T04:05:08;100972.50;;;12.01;100.00
38022;BME280;23832;43.216;27.946;2022-12-07T04:07:11;100975.13;;;12.01;100.00
38022;BME280;23832;43.216;27.946;2022-12-07T04:09:14;100975.31;;;12.00;100.00
38022;BME280;23832;43.216;27.946;2022-12-07T04:11:16;100971.03;;;11.99;100.00
38022;BME280;23832;43.216;27.946;2022-12-07T04:13:18;100971.22;;;11.97;100.00
38022;BME280;23832;43.216;27.946;2022-12-07T04:15:20;100965.91;;;11.97;100.00
38022;BME280;23832;43.216;27.946;2022-12-07T04:17:20;100970.38;;;11.97;100.00
38022;BME280;23832;43.216;27.946;2022-12-07T04:19:25;100959.16;;;11.94;100.00
38022;BME280;23832;43.216;27.946;2022-12-07T04:21:27;100962.78;;;11.93;100.00
38022;BME280;23832;43.216;27.946;2022-12-07T04:23:29;100961.16;;;11.92;100.00
38022;BME280;23832;43.216;27.946;2022-12-07T04:25:32;100961.50;;;11.89;100.00
38022;BME280;23832;43.216;27.946;2022-12-07T04:27:34;100960.69;;;11.89;100.00
38022;BME280;23832;43.216;27.946;2022-12-07T04:29:36;100957.22;;;11.88;100.00
38022;BME280;23832;43.216;27.946;2022-12-07T04:31:42;100958.22;;;11.87;100.00
38022;BME280;23832;43.216;27.946;2022-12-07T04:33:44;100955.72;;;11.86;100.00
38022;BME280;23832;43.216;27.946;2022-12-07T04:35:48;100952.25;;;11.85;100.00
38022;BME280;23832;43.216;27.946;2022-12-07T04:37:50;100954.91;;;11.85;100.00
38022;BME280;23832;43.216;27.946;2022-12-07T04:39:51;100958.53;;;11.84;100.00
38022;BME280;23832;43.216;27.946;2022-12-07T04:41:55;100954.25;;;11.83;100.00
38022;BME280;23832;43.216;27.946;2022-12-07T04:43:58;100962.19;;;11.83;100.00
38022;BME280;23832;43.216;27.946;2022-12-07T04:46:00;100961.53;;;11.81;100.00
38022;BME280;23832;43.216;27.946;2022-12-07T04:48:03;100961.72;;;11.80;100.00
38022;BME280;23832;43.216;27.946;2022-12-07T04:50:05;100958.41;;;11.78;100.00
38022;BME280;23832;43.216;27.946;2022-12-07T04:52:07;100966.31;;;11.78;100.00
38022;BME280;23832;43.216;27.946;2022-12-07T04:54:09;100961.88;;;11.78;100.00
38022;BME280;23832;43.216;27.946;2022-12-07T04:56:10;100968.16;;;11.77;100.00
38022;BME280;23832;43.216;27.946;2022-12-07T04:58:14;100966.16;;;11.79;100.00
38022;BME280;23832;43.216;27.946;2022-12-07T05:00:16;100960.88;;;11.79;100.00
38022;BME280;23832;43.216;27.946;2022-12-07T05:02:18;100965.19;;;11.80;100.00
38022;BME280;23832;43.216;27.946;2022-12-07T05:04:23;100962.53;;;11.80;100.00
38022;BME280;23832;43.216;27.946;2022-12-07T05:06:25;100965.00;;;11.82;100.00
38022;BME280;23832;43.216;27.946;2022-12-07T05:08:27;100967.47;;;11.83;100.00
38022;BME280;23832;43.216;27.946;2022-12-07T05:10:29;100961.19;;;11.84;100.00
38022;BME280;23832;43.216;27.946;2022-12-07T05:12:31;100961.84;;;11.86;100.00
38022;BME280;23832;43.216;27.946;2022-12-07T05:14:34;100965.97;;;11.89;100.00
38022;BME280;23832;43.216;27.946;2022-12-07T05:16:36;100972.91;;;11.90;100.00
38022;BME280;23832;43.216;27.946;2022-12-07T05:18:38;100966.44;;;11.92;100.00
38022;BME280;23832;43.216;27.946;2022-12-07T05:20:40;100968.06;;;11.93;100.00
38022;BME280;23832;43.216;27.946;2022-12-07T05:22:43;100971.72;;;11.92;100.00
38022;BME280;23832;43.216;27.946;2022-12-07T05:24:45;100972.72;;;11.91;100.00
38022;BME280;23832;43.216;27.946;2022-12-07T05:26:48;100972.72;;;11.91;100.00
38022;BME280;23832;43.216;27.946;2022-12-07T05:28:51;100969.25;;;11.91;100.00
38022;BME280;23832;43.216;27.946;2022-12-07T05:30:54;100972.06;;;11.89;100.00
38022;BME280;23832;43.216;27.946;2022-12-07T05:32:56;100973.72;;;11.90;100.00
38022;BME280;23832;43.216;27.946;2022-12-07T05:34:57;100977.00;;;11.92;100.00
38022;BME280;23832;43.216;27.946;2022-12-07T05:36:59;100972.34;;;11.94;100.00
38022;BME280;23832;43.216;27.946;2022-12-07T05:39:01;100974.66;;;11.98;100.00
38022;BME280;23832;43.216;27.946;2022-12-07T05:41:04;100981.06;;;12.03;100.00
38022;BME280;23832;43.216;27.946;2022-12-07T05:43:07;100984.03;;;12.08;100.00
38022;BME280;23832;43.216;27.946;2022-12-07T05:45:08;100981.69;;;12.13;100.00
38022;BME280;23832;43.216;27.946;2022-12-07T05:47:12;100973.22;;;12.18;100.00
38022;BME280;23832;43.216;27.946;2022-12-07T05:49:15;100979.47;;;12.25;100.00
38022;BME280;23832;43.216;27.946;2022-12-07T05:51:16;100977.78;;;12.32;100.00
38022;BME280;23832;43.216;27.946;2022-12-07T05:53:18;100977.88;;;12.39;100.00
38022;BME280;23832;43.216;27.946;2022-12-07T05:55:23;100968.22;;;12.46;100.00
38022;BME280;23832;43.216;27.946;2022-12-07T05:57:25;100968.00;;;12.56;100.00
38022;BME280;23832;43.216;27.946;2022-12-07T05:59:27;100968.41;;;12.67;100.00
38022;BME280;23832;43.216;27.946;2022-12-07T06:01:28;100970.00;;;12.76;100.00
38022;BME280;23832;43.216;27.946;2022-12-07T06:03:31;100971.72;;;12.84;100.00
38022;BME280;23832;43.216;27.946;2022-12-07T06:05:33;100962.88;;;12.92;100.00
38022;BME280;23832;43.216;27.946;2022-12-07T06:07:35;100973.56;;;12.98;100.00
38022;BME280;23832;43.216;27.946;2022-12-07T06:09:38;100972.88;;;13.04;100.00
38022;BME280;23832;43.216;27.946;2022-12-07T06:11:40;100970.28;;;13.11;100.00
38022;BME280;23832;43.216;27.946;2022-12-07T06:13:59;100972.22;;;13.17;100.00
38022;BME280;23832;43.216;27.946;2022-12-07T06:16:05;100974.00;;;13.25;100.00
38022;BME280;23832;43.216;27.946;2022-12-07T06:18:07;100969.63;;;13.32;100.00
38022;BME280;23832;43.216;27.946;2022-12-07T06:20:12;100968.53;;;13.41;100.00
38022;BME280;23832;43.216;27.946;2022-12-07T06:22:14;100970.91;;;13.51;100.00
38022;BME280;23832;43.216;27.946;2022-12-07T06:24:17;100975.91;;;13.60;100.00
38022;BME280;23832;43.216;27.946;2022-12-07T06:26:19;100983.56;;;13.70;100.00
38022;BME280;23832;43.216;27.946;2022-12-07T06:28:21;100976.34;;;13.79;100.00
38022;BME280;23832;43.216;27.946;2022-12-07T06:30:25;100976.69;;;13.90;100.00
38022;BME280;23832;43.216;27.946;2022-12-07T06:32:26;100984.81;;;14.04;100.00
38022;BME280;23832;43.216;27.946;2022-12-07T06:34:28;100981.66;;;14.15;100.00
38022;BME280;23832;43.216;27.946;2022-12-07T06:36:32;100974.84;;;14.27;100.00
38022;BME280;23832;43.216;27.946;2022-12-07T06:38:33;100982.94;;;14.40;100.00
38022;BME280;23832;43.216;27.946;2022-12-07T06:40:35;100974.91;;;14.48;100.00
38022;BME280;23832;43.216;27.946;2022-12-07T06:42:36;100977.84;;;14.60;100.00
38022;BME280;23832;43.216;27.946;2022-12-07T06:44:38;100972.00;;;14.71;100.00
38022;BME280;23832;43.216;27.946;2022-12-07T06:46:40;100975.97;;;14.82;100.00
38022;BME280;23832;43.216;27.946;2022-12-07T06:48:42;100971.81;;;14.94;100.00
38022;BME280;23832;43.216;27.946;2022-12-07T06:50:44;100982.69;;;15.06;100.00
38022;BME280;23832;43.216;27.946;2022-12-07T06:52:47;100981.13;;;15.18;100.00
38022;BME280;23832;43.216;27.946;2022-12-07T06:54:49;100980.41;;;15.31;100.00
38022;BME280;23832;43.216;27.946;2022-12-07T06:56:50;100975.97;;;15.45;100.00
38022;BME280;23832;43.216;27.946;2022-12-07T06:58:52;100974.66;;;15.62;100.00
38022;BME280;23832;43.216;27.946;2022-12-07T07:00:55;100977.59;;;15.80;100.00
38022;BME280;23832;43.216;27.946;2022-12-07T07:02:57;100977.06;;;15.98;100.00
38022;BME280;23832;43.216;27.946;2022-12-07T07:04:59;100976.69;;;16.14;100.00
38022;BME280;23832;43.216;27.946;2022-12-07T07:07:00;100967.94;;;16.27;100.00
38022;BME280;23832;43.216;27.946;2022-12-07T07:09:05;100964.69;;;16.38;100.00
38022;BME280;23832;43.216;27.946;2022-12-07T07:11:07;100968.38;;;16.51;100.00
38022;BME280;23832;43.216;27.946;2022-12-07T07:13:09;100964.09;;;16.63;100.00
38022;BME280;23832;43.216;27.946;2022-12-07T07:15:11;100966.78;;;16.76;100.00
38022;BME280;23832;43.216;27.946;2022-12-07T07:17:13;100966.16;;;16.94;100.00
38022;BME280;23832;43.216;27.946;2022-12-07T07:19:18;100972.25;;;17.14;100.00
38022;BME280;23832;43.216;27.946;2022-12-07T07:21:33;100979.81;;;17.44;100.00
38022;BME280;23832;43.216;27.946;2022-12-07T07:23:35;100975.38;;;17.69;100.00
38022;BME280;23832;43.216;27.946;2022-12-07T07:25:38;100970.63;;;17.91;100.00
38022;BME280;23832;43.216;27.946;2022-12-07T07:27:40;100972.56;;;18.15;100.00
38022;BME280;23832;43.216;27.946;2022-12-07T07:29:42;100975.72;;;18.31;100.00
38022;BME280;23832;43.216;27.946;2022-12-07T07:31:45;100978.09;;;18.46;100.00
38022;BME280;23832;43.216;27.946;2022-12-07T07:33:47;100974.25;;;18.66;100.00
38022;BME280;23832;43.216;27.946;2022-12-07T07:35:49;100972.84;;;18.89;100.00
38022;BME280;23832;43.216;27.946;2022-12-07T07:37:50;100972.31;;;19.05;100.00
38022;BME280;23832;43.216;27.946;2022-12-07T07:39:52;100965.53;;;19.21;100.00
38022;BME280;23832;43.216;27.946;2022-12-07T07:42:00;100964.16;;;19.37;100.00
38022;BME280;23832;43.216;27.946;2022-12-07T07:44:01;100974.84;;;19.55;100.00
38022;BME280;23832;43.216;27.946;2022-12-07T07:46:04;100972.75;;;19.75;100.00
38022;BME280;23832;43.216;27.946;2022-12-07T07:48:06;100969.16;;;20.00;100.00
38022;BME280;23832;43.216;27.946;2022-12-07T07:50:09;100977.88;;;20.25;100.00
38022;BME280;23832;43.216;27.946;2022-12-07T07:52:11;100971.31;;;20.51;100.00
38022;BME280;23832;43.216;27.946;2022-12-07T07:54:13;100964.50;;;20.67;100.00
38022;BME280;23832;43.216;27.946;2022-12-07T07:56:15;100962.97;;;20.83;100.00
38022;BME280;23832;43.216;27.946;2022-12-07T07:58:18;100958.88;;;20.92;100.00
38022;BME280;23832;43.216;27.946;2022-12-07T08:00:20;100965.53;;;21.01;100.00
38022;BME280;23832;43.216;27.946;2022-12-07T08:02:24;100963.91;;;21.12;100.00
38022;BME280;23832;43.216;27.946;2022-12-07T08:04:26;100968.56;;;21.28;100.00
38022;BME280;23832;43.216;27.946;2022-12-07T08:06:28;100962.47;;;21.44;98.50
38022;BME280;23832;43.216;27.946;2022-12-07T08:08:29;100963.94;;;21.64;95.62
38022;BME280;23832;43.216;27.946;2022-12-07T08:10:31;100971.00;;;21.81;92.65
38022;BME280;23832;43.216;27.946;2022-12-07T08:12:35;100949.00;;;21.96;88.68
38022;BME280;23832;43.216;27.946;2022-12-07T08:14:39;100963.47;;;22.07;82.05
38022;BME280;23832;43.216;27.946;2022-12-07T08:16:41;100958.28;;;22.17;79.93
38022;BME280;23832;43.216;27.946;2022-12-07T08:18:43;100958.22;;;22.29;80.59
38022;BME280;23832;43.216;27.946;2022-12-07T08:20:45;100958.97;;;22.41;78.69
38022;BME280;23832;43.216;27.946;2022-12-07T08:22:48;100955.88;;;22.49;75.02
38022;BME280;23832;43.216;27.946;2022-12-07T08:24:50;100953.25;;;22.54;71.59
38022;BME280;23832;43.216;27.946;2022-12-07T08:26:51;100953.34;;;22.59;71.07
38022;BME280;23832;43.216;27.946;2022-12-07T08:28:54;100954.00;;;22.66;69.78
38022;BME280;23832;43.216;27.946;2022-12-07T08:30:59;100948.53;;;22.78;70.64
38022;BME280;23832;43.216;27.946;2022-12-07T08:33:02;100944.78;;;22.96;71.07
38022;BME280;23832;43.216;27.946;2022-12-07T08:35:11;100940.75;;;23.15;70.23
38022;BME280;23832;43.216;27.946;2022-12-07T08:37:13;100949.97;;;23.41;71.01
38022;BME280;23832;43.216;27.946;2022-12-07T08:39:14;100945.72;;;23.67;70.85
38022;BME280;23832;43.216;27.946;2022-12-07T08:41:16;100946.50;;;23.90;67.74
38022;BME280;23832;43.216;27.946;2022-12-07T08:43:18;100943.97;;;24.05;63.14
38022;BME280;23832;43.216;27.946;2022-12-07T08:45:20;100940.28;;;24.16;60.53
38022;BME280;23832;43.216;27.946;2022-12-07T08:47:23;100941.44;;;24.25;59.87
38022;BME280;23832;43.216;27.946;2022-12-07T08:49:26;100942.97;;;24.38;59.54
38022;BME280;23832;43.216;27.946;2022-12-07T08:51:29;100933.53;;;24.41;57.41
38022;BME280;23832;43.216;27.946;2022-12-07T08:53:31;100934.66;;;24.45;56.24
38022;BME280;23832;43.216;27.946;2022-12-07T08:55:34;100930.72;;;24.57;58.32
38022;BME280;23832;43.216;27.946;2022-12-07T08:57:36;100927.34;;;24.77;59.31
38022;BME280;23832;43.216;27.946;2022-12-07T08:59:38;100922.06;;;24.98;58.33
38022;BME280;23832;43.216;27.946;2022-12-07T09:01:40;100922.72;;;25.15;58.29
38022;BME280;23832;43.216;27.946;2022-12-07T09:03:43;100924.66;;;25.25;56.32
38022;BME280;23832;43.216;27.946;2022-12-07T09:05:44;100919.84;;;25.37;55.66
38022;BME280;23832;43.216;27.946;2022-12-07T09:07:47;100923.66;;;25.46;54.21
38022;BME280;23832;43.216;27.946;2022-12-07T09:09:52;100920.19;;;25.56;52.78
38022;BME280;23832;43.216;27.946;2022-12-07T09:11:53;100925.03;;;25.59;52.43
38022;BME280;23832;43.216;27.946;2022-12-07T09:13:55;100913.47;;;25.63;52.45
38022;BME280;23832;43.216;27.946;2022-12-07T09:16:03;100905.63;;;25.67;52.02
38022;BME280;23832;43.216;27.946;2022-12-07T09:18:05;100909.97;;;25.63;50.53
38022;BME280;23832;43.216;27.946;2022-12-07T09:20:09;100913.69;;;25.52;48.61
38022;BME280;23832;43.216;27.946;2022-12-07T09:22:11;100901.78;;;25.37;48.33
38022;BME280;23832;43.216;27.946;2022-12-07T09:24:13;100896.34;;;25.32;47.74
38022;BME280;23832;43.216;27.946;2022-12-07T09:26:15;100890.94;;;25.27;47.95
38022;BME280;23832;43.216;27.946;2022-12-07T09:28:17;100883.38;;;25.24;48.95
38022;BME280;23832;43.216;27.946;2022-12-07T09:30:19;100881.22;;;25.26;49.64
38022;BME280;23832;43.216;27.946;2022-12-07T09:32:20;100884.22;;;25.35;49.76
38022;BME280;23832;43.216;27.946;2022-12-07T09:34:22;100882.34;;;25.40;49.17
38022;BME280;23832;43.216;27.946;2022-12-07T09:36:28;100880.25;;;25.53;49.79
38022;BME280;23832;43.216;27.946;2022-12-07T09:38:30;100876.53;;;25.74;50.32
38022;BME280;23832;43.216;27.946;2022-12-07T09:40:32;100884.38;;;25.96;50.45
38022;BME280;23832;43.216;27.946;2022-12-07T09:42:35;100876.53;;;26.20;50.00
38022;BME280;23832;43.216;27.946;2022-12-07T09:44:39;100868.44;;;26.40;48.58
38022;BME280;23832;43.216;27.946;2022-12-07T09:46:41;100873.59;;;26.52;47.23
38022;BME280;23832;43.216;27.946;2022-12-07T09:48:44;100873.31;;;26.53;46.24
38022;BME280;23832;43.216;27.946;2022-12-07T09:50:47;100866.56;;;26.46;45.28
38022;BME280;23832;43.216;27.946;2022-12-07T09:52:52;100863.84;;;26.25;44.24
38022;BME280;23832;43.216;27.946;2022-12-07T09:54:55;100859.78;;;26.13;44.37
38022;BME280;23832;43.216;27.946;2022-12-07T09:56:57;100860.31;;;25.94;43.53
38022;BME280;23832;43.216;27.946;2022-12-07T09:59:00;100852.16;;;25.69;42.86
38022;BME280;23832;43.216;27.946;2022-12-07T10:01:05;100855.59;;;25.34;42.46
38022;BME280;23832;43.216;27.946;2022-12-07T10:03:11;100854.09;;;24.90;42.34
38022;BME280;23832;43.216;27.946;2022-12-07T10:05:14;100857.34;;;24.50;42.76
38022;BME280;23832;43.216;27.946;2022-12-07T10:07:22;100847.06;;;24.10;43.05
38022;BME280;23832;43.216;27.946;2022-12-07T10:09:27;100849.38;;;23.69;43.34
38022;BME280;23832;43.216;27.946;2022-12-07T10:11:35;100848.69;;;23.30;44.03
38022;BME280;23832;43.216;27.946;2022-12-07T10:13:37;100843.44;;;22.97;44.47
38022;BME280;23832;43.216;27.946;2022-12-07T10:15:40;100836.25;;;22.63;44.66
38022;BME280;23832;43.216;27.946;2022-12-07T10:17:47;100836.88;;;22.32;45.27
38022;BME280;23832;43.216;27.946;2022-12-07T10:19:50;100835.06;;;22.04;46.20
38022;BME280;23832;43.216;27.946;2022-12-07T10:22:02;100841.72;;;21.85;46.85
38022;BME280;23832;43.216;27.946;2022-12-07T10:24:14;100829.22;;;21.62;47.12
38022;BME280;23832;43.216;27.946;2022-12-07T10:26:25;100826.75;;;21.43;47.91
38022;BME280;23832;43.216;27.946;2022-12-07T10:28:33;100819.00;;;21.30;48.89
38022;BME280;23832;43.216;27.946;2022-12-07T10:30:46;100823.91;;;21.21;49.34
38022;BME280;23832;43.216;27.946;2022-12-07T10:32:50;100821.84;;;21.12;49.95
38022;BME280;23832;43.216;27.946;2022-12-07T10:34:56;100820.78;;;21.01;50.04
38022;BME280;23832;43.216;27.946;2022-12-07T10:37:18;100814.09;;;20.87;49.91